Aérodrome :
LOGIN :

S'inscrire | Disclaimer

   EN    FR    IT 

 










Légende :    VFR   VFR Marginal   IFR   IFR Intensif   IFR Très Intensif
Visi : 
Plafond : 
>= 8 km
>= 3000ft
5 à 8 km
1000 à 3000 ft
1500m à 5 km
500 à 1000 ft
800 à 1500m
200 à 500 ft
< 800m
< 200 ft
Symboles :   Orages  Brouillard  Fortes neiges  Fortes précipitations  Vent > 20 kt
SIGMETs :   Divers  Orages  Givrage  Turbulence  Onde Orograph.  Cendres Volcan.







- Altitude de l'aérodrome : 1475 ft


LSZC - Buochs Stans

DERNIER METAR :
  • 231150Z AUTO 07005KT 360V150 9999 NCD 12/07 Q1012

METARs EXPIRÉS :
  • 231120Z AUTO 10003KT 020V180 9999 NCD 13/08 Q1012
  • 231050Z 09005KT 010V140 9999 FEW020 11/06 Q1012
  • 231020Z 09003KT CAVOK 10/06 Q1012
  • 230950Z 15003KT 070V220 CAVOK 10/04 Q1012
  • 230920Z VRB02KT CAVOK 09/05 Q1012

TAF TAF LSZC
Valide du 23 à 12h jusqu'au 23 à 21h UTC


231125Z 2312/2321 09006KT CAVOK
Pas de NOTAMs connus pour ce terrain.



MET'MAP, la Météo Aéronautique d'un coup d'oeil ! - Copyright ORBIFLY Décembre 2007 - Disclaimer

ORBIFLY MET'MAP TEAM :

Programmation & Développement : Alexandra Zaïnal
Conception & Développement : Baudouin d'Aumeries
Co-Programmation & Développement : Marc-Olivier Méhu
Soutien technique & logistique : Manuel Goepfert

Contact : metmap@orbifly.com




SOURCES & CREDITS :

   NOAA